Airfield :
LOGIN :

Register | Disclaimer

   EN    FR    IT 

 










Legend :    VFR   Marginal VFR   IFR   Intensive IFR   Very Intensive IFR
Visi :
Ceiling :
>= 8 km
>= 3000ft
5 to 8 km
1000 to 3000 ft
1500m to 5 km
500 to 1000 ft
800 to 1500m
200 to 500 ft
< 800m
< 200 ft
Symbols :   Thunderstorms  Fog  Heavy snow  Heavy precipitations  Wind > 20 kt
SIGMETs :     Misc.  Thunderstorms  Icing  Turbulence  Mountain Waves  Volcanic Ashes







- Airport Elevation : 22 ft
- IATA code : LDY
- Download approach charts


EGAE - Londonderry Eglington

CURRENT METAR :
  • 211020Z 19011KT 160V220 9999 FEW014 18/14 Q1011

EXPIRED METARs :
  • 210950Z 19009KT 150V220 9999 FEW014 SCT037 17/14 Q1011
  • 210920Z 20009KT 9999 -RA FEW014 SCT035 17/14 Q1012
  • 210850Z 20011KT 9999 -RA FEW014 SCT035 17/13 Q1012
  • 210820Z 20011KT 160V220 9999 FEW013 SCT035 17/14 Q1012
  • 210750Z 20011KT 160V220 9999 FEW012 SCT035 17/14 Q1012
  • 210720Z 20010KT 170V230 9999 FEW010 SCT030 16/14 Q1012

TAF TAF EGAE
Valid from the 21 at 09:00 until the 21 at 18:00 UTC


210807Z 2109/2118 20011KT 9999 FEW012 SCT030
TEMPO 2109/2115 7000 RA BKN014
TEMPO 2109/2111 20015G25KT
BECMG 2111/2114 20018G28KT
PROB30
TEMPO 2114/2118 4000 +RA BKN009
No reported NOTAMs for that airfield.



MET'MAP, your aeronautical weather chart ! - Copyright ORBIFLY December 2007 - Disclaimer

ORBIFLY MET'MAP TEAM :

Programming & Development : Alexandra Zaïnal
Concept & Development : Baudouin d'Aumeries
Co-Development & Prog : Marc-Olivier Méhu
Technical & hardware support : Manuel Goepfert

Contact : metmap@orbifly.com




SOURCES & CREDITS :

   NOAA